sensor_id;sensor_type;location;lat;lon;timestamp;pressure;altitude;pressure_sealevel;temperature;humidity
77227;BME280;66234;47.642;19.144;2024-02-04T00:01:41;100695.44;;;9.39;78.33
77227;BME280;66234;47.642;19.144;2024-02-04T00:04:44;100703.91;;;9.43;78.32
77227;BME280;66234;47.642;19.144;2024-02-04T00:07:47;100690.38;;;9.44;78.26
77227;BME280;66234;47.642;19.144;2024-02-04T00:10:49;100702.44;;;9.40;78.46
77227;BME280;66234;47.642;19.144;2024-02-04T00:13:52;100693.53;;;9.33;78.42
77227;BME280;66234;47.642;19.144;2024-02-04T00:16:55;100703.94;;;9.28;78.88
77227;BME280;66234;47.642;19.144;2024-02-04T00:19:57;100702.75;;;9.31;78.63
77227;BME280;66234;47.642;19.144;2024-02-04T00:23:00;100715.41;;;9.43;77.99
77227;BME280;66234;47.642;19.144;2024-02-04T00:26:03;100715.84;;;9.47;77.71
77227;BME280;66234;47.642;19.144;2024-02-04T00:29:07;100715.81;;;9.61;77.54
77227;BME280;66234;47.642;19.144;2024-02-04T00:32:09;100711.50;;;9.60;77.44
77227;BME280;66234;47.642;19.144;2024-02-04T00:35:12;100700.16;;;9.58;77.17
77227;BME280;66234;47.642;19.144;2024-02-04T00:38:15;100733.34;;;9.70;76.76
77227;BME280;66234;47.642;19.144;2024-02-04T00:41:18;100713.03;;;9.69;76.83
77227;BME280;66234;47.642;19.144;2024-02-04T00:44:20;100698.19;;;9.67;76.69
77227;BME280;66234;47.642;19.144;2024-02-04T00:47:23;100697.13;;;9.61;77.15
77227;BME280;66234;47.642;19.144;2024-02-04T00:50:26;100699.78;;;9.61;76.82
77227;BME280;66234;47.642;19.144;2024-02-04T00:53:28;100715.69;;;9.69;76.89
77227;BME280;66234;47.642;19.144;2024-02-04T00:56:36;100748.19;;;9.73;76.69
77227;BME280;66234;47.642;19.144;2024-02-04T00:59:40;100708.44;;;9.84;76.38
77227;BME280;66234;47.642;19.144;2024-02-04T01:02:43;100727.41;;;9.89;76.15
77227;BME280;66234;47.642;19.144;2024-02-04T01:05:46;100720.75;;;9.85;76.11
77227;BME280;66234;47.642;19.144;2024-02-04T01:08:49;100697.63;;;9.92;75.78
77227;BME280;66234;47.642;19.144;2024-02-04T01:11:52;100694.03;;;9.79;76.32
77227;BME280;66234;47.642;19.144;2024-02-04T01:14:55;100694.88;;;9.86;76.22
77227;BME280;66234;47.642;19.144;2024-02-04T01:17:58;100687.06;;;9.84;75.97
77227;BME280;66234;47.642;19.144;2024-02-04T01:21:00;100700.63;;;9.83;76.47
77227;BME280;66234;47.642;19.144;2024-02-04T01:24:03;100686.25;;;9.84;76.32
77227;BME280;66234;47.642;19.144;2024-02-04T01:27:06;100678.56;;;9.74;76.72
77227;BME280;66234;47.642;19.144;2024-02-04T01:30:10;100691.28;;;9.72;77.22
77227;BME280;66234;47.642;19.144;2024-02-04T01:33:12;100670.91;;;9.71;77.33
77227;BME280;66234;47.642;19.144;2024-02-04T01:36:16;100663.44;;;9.60;77.73
77227;BME280;66234;47.642;19.144;2024-02-04T01:39:18;100660.97;;;9.59;77.92
77227;BME280;66234;47.642;19.144;2024-02-04T01:42:21;100660.88;;;9.52;77.90
77227;BME280;66234;47.642;19.144;2024-02-04T01:45:24;100661.00;;;9.44;78.48
77227;BME280;66234;47.642;19.144;2024-02-04T01:48:27;100635.16;;;9.45;78.29
77227;BME280;66234;47.642;19.144;2024-02-04T01:51:30;100634.59;;;9.49;78.50
77227;BME280;66234;47.642;19.144;2024-02-04T01:54:33;100656.34;;;9.53;78.32
77227;BME280;66234;47.642;19.144;2024-02-04T01:57:37;100660.50;;;9.55;77.58
77227;BME280;66234;47.642;19.144;2024-02-04T02:00:40;100667.50;;;9.56;77.93
77227;BME280;66234;47.642;19.144;2024-02-04T02:03:43;100655.56;;;9.52;77.97
77227;BME280;66234;47.642;19.144;2024-02-04T02:06:46;100647.22;;;9.41;78.51
77227;BME280;66234;47.642;19.144;2024-02-04T02:09:49;100660.75;;;9.39;78.74
77227;BME280;66234;47.642;19.144;2024-02-04T02:12:56;100663.59;;;9.38;78.89
77227;BME280;66234;47.642;19.144;2024-02-04T02:16:09;100658.47;;;9.36;78.94
77227;BME280;66234;47.642;19.144;2024-02-04T02:22:47;100634.31;;;9.23;80.16
77227;BME280;66234;47.642;19.144;2024-02-04T02:25:51;100645.09;;;9.15;80.71
77227;BME280;66234;47.642;19.144;2024-02-04T02:28:54;100652.63;;;9.12;80.75
77227;BME280;66234;47.642;19.144;2024-02-04T02:31:57;100648.34;;;9.11;81.19
77227;BME280;66234;47.642;19.144;2024-02-04T02:35:00;100649.78;;;9.13;81.13
77227;BME280;66234;47.642;19.144;2024-02-04T02:38:20;100645.91;;;9.16;81.12
77227;BME280;66234;47.642;19.144;2024-02-04T02:41:26;100650.06;;;9.18;80.96
77227;BME280;66234;47.642;19.144;2024-02-04T02:44:32;100646.06;;;9.29;80.78
77227;BME280;66234;47.642;19.144;2024-02-04T02:47:38;100622.50;;;9.32;80.34
77227;BME280;66234;47.642;19.144;2024-02-04T02:50:42;100636.41;;;9.28;80.77
77227;BME280;66234;47.642;19.144;2024-02-04T02:53:44;100629.56;;;9.19;80.89
77227;BME280;66234;47.642;19.144;2024-02-04T02:56:47;100638.94;;;9.15;81.30
77227;BME280;66234;47.642;19.144;2024-02-04T02:59:49;100644.53;;;9.20;81.43
77227;BME280;66234;47.642;19.144;2024-02-04T03:02:52;100632.75;;;9.14;81.79
77227;BME280;66234;47.642;19.144;2024-02-04T03:05:54;100643.22;;;9.16;81.79
77227;BME280;66234;47.642;19.144;2024-02-04T03:08:57;100657.13;;;9.11;82.23
77227;BME280;66234;47.642;19.144;2024-02-04T03:12:00;100645.09;;;9.15;82.38
77227;BME280;66234;47.642;19.144;2024-02-04T03:15:03;100636.53;;;9.20;82.36
77227;BME280;66234;47.642;19.144;2024-02-04T03:18:05;100643.06;;;9.17;82.20
77227;BME280;66234;47.642;19.144;2024-02-04T03:21:15;100654.94;;;9.15;82.51
77227;BME280;66234;47.642;19.144;2024-02-04T03:24:18;100660.53;;;9.20;82.36
77227;BME280;66234;47.642;19.144;2024-02-04T03:27:21;100666.16;;;9.25;82.43
77227;BME280;66234;47.642;19.144;2024-02-04T03:30:24;100662.56;;;9.18;82.87
77227;BME280;66234;47.642;19.144;2024-02-04T03:33:26;100667.25;;;9.16;82.74
77227;BME280;66234;47.642;19.144;2024-02-04T03:36:30;100664.44;;;9.03;83.62
77227;BME280;66234;47.642;19.144;2024-02-04T03:39:33;100657.66;;;9.00;83.63
77227;BME280;66234;47.642;19.144;2024-02-04T03:42:35;100646.97;;;9.00;83.74
77227;BME280;66234;47.642;19.144;2024-02-04T03:45:38;100654.16;;;9.00;83.77
77227;BME280;66234;47.642;19.144;2024-02-04T03:48:42;100665.09;;;9.05;83.97
77227;BME280;66234;47.642;19.144;2024-02-04T03:51:44;100661.59;;;9.04;83.96
77227;BME280;66234;47.642;19.144;2024-02-04T03:54:47;100654.84;;;9.08;83.80
77227;BME280;66234;47.642;19.144;2024-02-04T03:57:50;100651.19;;;9.09;83.81
77227;BME280;66234;47.642;19.144;2024-02-04T04:00:52;100656.72;;;9.08;83.78
77227;BME280;66234;47.642;19.144;2024-02-04T04:03:55;100661.09;;;9.15;83.54
77227;BME280;66234;47.642;19.144;2024-02-04T04:06:58;100669.38;;;9.20;82.93
77227;BME280;66234;47.642;19.144;2024-02-04T04:10:01;100661.84;;;9.09;83.61
77227;BME280;66234;47.642;19.144;2024-02-04T04:13:03;100659.75;;;9.05;84.36
77227;BME280;66234;47.642;19.144;2024-02-04T04:16:06;100657.66;;;9.00;84.99
77227;BME280;66234;47.642;19.144;2024-02-04T04:19:09;100660.19;;;9.08;85.04
77227;BME280;66234;47.642;19.144;2024-02-04T04:22:12;100665.03;;;9.19;84.90
77227;BME280;66234;47.642;19.144;2024-02-04T04:25:14;100653.00;;;9.23;84.85
77227;BME280;66234;47.642;19.144;2024-02-04T04:28:17;100664.94;;;9.27;85.09
77227;BME280;66234;47.642;19.144;2024-02-04T04:31:19;100654.44;;;9.26;85.08
77227;BME280;66234;47.642;19.144;2024-02-04T04:34:22;100653.31;;;9.35;84.92
77227;BME280;66234;47.642;19.144;2024-02-04T04:37:25;100652.66;;;9.33;84.99
77227;BME280;66234;47.642;19.144;2024-02-04T04:40:27;100665.00;;;9.34;84.64
77227;BME280;66234;47.642;19.144;2024-02-04T04:43:30;100673.47;;;9.37;84.28
77227;BME280;66234;47.642;19.144;2024-02-04T04:46:32;100653.56;;;9.40;84.29
77227;BME280;66234;47.642;19.144;2024-02-04T04:49:35;100653.38;;;9.41;84.34
77227;BME280;66234;47.642;19.144;2024-02-04T04:52:38;100660.13;;;9.37;84.34
77227;BME280;66234;47.642;19.144;2024-02-04T04:55:40;100646.97;;;9.36;84.08
77227;BME280;66234;47.642;19.144;2024-02-04T04:58:43;100651.00;;;9.32;84.52
77227;BME280;66234;47.642;19.144;2024-02-04T05:01:49;100648.16;;;9.33;84.52
77227;BME280;66234;47.642;19.144;2024-02-04T05:04:51;100642.75;;;9.27;84.54
77227;BME280;66234;47.642;19.144;2024-02-04T05:07:54;100657.56;;;9.29;84.77
77227;BME280;66234;47.642;19.144;2024-02-04T05:10:57;100665.75;;;9.28;85.42
77227;BME280;66234;47.642;19.144;2024-02-04T05:14:00;100657.75;;;9.28;84.91
77227;BME280;66234;47.642;19.144;2024-02-04T05:17:04;100661.38;;;9.20;85.58
77227;BME280;66234;47.642;19.144;2024-02-04T05:20:06;100655.38;;;9.18;85.52
77227;BME280;66234;47.642;19.144;2024-02-04T05:23:10;100657.22;;;9.18;85.82
77227;BME280;66234;47.642;19.144;2024-02-04T05:26:12;100645.75;;;9.17;85.63
77227;BME280;66234;47.642;19.144;2024-02-04T05:29:15;100654.09;;;9.14;85.66
77227;BME280;66234;47.642;19.144;2024-02-04T05:32:18;100650.44;;;9.15;85.39
77227;BME280;66234;47.642;19.144;2024-02-04T05:35:20;100643.88;;;9.18;85.14
77227;BME280;66234;47.642;19.144;2024-02-04T05:38:23;100637.78;;;9.24;84.44
77227;BME280;66234;47.642;19.144;2024-02-04T05:41:26;100621.78;;;9.24;84.52
77227;BME280;66234;47.642;19.144;2024-02-04T05:44:28;100619.88;;;9.18;84.63
77227;BME280;66234;47.642;19.144;2024-02-04T05:47:31;100633.50;;;9.08;85.55
77227;BME280;66234;47.642;19.144;2024-02-04T05:50:33;100621.91;;;9.16;84.91
77227;BME280;66234;47.642;19.144;2024-02-04T05:53:36;100626.53;;;9.07;85.53
77227;BME280;66234;47.642;19.144;2024-02-04T05:56:39;100633.00;;;8.98;86.09
77227;BME280;66234;47.642;19.144;2024-02-04T05:59:41;100641.84;;;8.99;86.40
77227;BME280;66234;47.642;19.144;2024-02-04T06:02:44;100654.66;;;9.10;85.54
77227;BME280;66234;47.642;19.144;2024-02-04T06:05:47;100651.19;;;9.09;85.66
77227;BME280;66234;47.642;19.144;2024-02-04T06:08:49;100662.78;;;9.02;86.56
77227;BME280;66234;47.642;19.144;2024-02-04T06:11:52;100653.41;;;9.06;86.14
77227;BME280;66234;47.642;19.144;2024-02-04T06:14:55;100667.56;;;9.06;85.82
77227;BME280;66234;47.642;19.144;2024-02-04T06:17:57;100673.72;;;9.07;86.11
77227;BME280;66234;47.642;19.144;2024-02-04T06:21:00;100675.75;;;9.05;86.63
77227;BME280;66234;47.642;19.144;2024-02-04T06:24:02;100679.13;;;9.13;86.02
77227;BME280;66234;47.642;19.144;2024-02-04T06:27:05;100667.81;;;9.11;86.04
77227;BME280;66234;47.642;19.144;2024-02-04T06:30:08;100668.84;;;9.10;86.41
77227;BME280;66234;47.642;19.144;2024-02-04T06:33:12;100676.66;;;9.12;86.27
77227;BME280;66234;47.642;19.144;2024-02-04T06:36:15;100682.06;;;9.18;86.02
77227;BME280;66234;47.642;19.144;2024-02-04T06:39:17;100686.66;;;9.24;85.53
77227;BME280;66234;47.642;19.144;2024-02-04T06:42:20;100698.94;;;9.40;84.68
77227;BME280;66234;47.642;19.144;2024-02-04T06:45:23;100692.16;;;9.37;84.78
77227;BME280;66234;47.642;19.144;2024-02-04T06:48:25;100697.50;;;9.37;84.88
77227;BME280;66234;47.642;19.144;2024-02-04T06:51:28;100696.78;;;9.50;84.64
77227;BME280;66234;47.642;19.144;2024-02-04T06:54:31;100716.88;;;9.46;84.86
77227;BME280;66234;47.642;19.144;2024-02-04T06:57:33;100716.09;;;9.52;84.34
77227;BME280;66234;47.642;19.144;2024-02-04T07:00:36;100718.13;;;9.50;84.24
77227;BME280;66234;47.642;19.144;2024-02-04T07:03:38;100718.13;;;9.50;84.27
77227;BME280;66234;47.642;19.144;2024-02-04T07:06:41;100728.50;;;9.59;84.15
77227;BME280;66234;47.642;19.144;2024-02-04T07:09:44;100732.59;;;9.55;84.15
77227;BME280;66234;47.642;19.144;2024-02-04T07:12:46;100722.56;;;9.57;84.30
77227;BME280;66234;47.642;19.144;2024-02-04T07:15:49;100726.69;;;9.60;84.13
77227;BME280;66234;47.642;19.144;2024-02-04T07:18:51;100734.50;;;9.61;84.14
77227;BME280;66234;47.642;19.144;2024-02-04T07:21:54;100730.88;;;9.69;83.49
77227;BME280;66234;47.642;19.144;2024-02-04T07:24:57;100724.50;;;9.70;83.64
77227;BME280;66234;47.642;19.144;2024-02-04T07:28:00;100727.00;;;9.71;83.51
77227;BME280;66234;47.642;19.144;2024-02-04T07:31:03;100719.25;;;9.76;83.07
77227;BME280;66234;47.642;19.144;2024-02-04T07:34:06;100716.25;;;9.86;82.32
77227;BME280;66234;47.642;19.144;2024-02-04T07:37:08;100712.63;;;9.93;82.20
77227;BME280;66234;47.642;19.144;2024-02-04T07:40:11;100707.81;;;10.03;81.89
77227;BME280;66234;47.642;19.144;2024-02-04T07:43:14;100710.78;;;10.15;81.43
77227;BME280;66234;47.642;19.144;2024-02-04T07:46:17;100711.56;;;10.30;80.93
77227;BME280;66234;47.642;19.144;2024-02-04T07:49:19;100722.72;;;10.40;80.42
77227;BME280;66234;47.642;19.144;2024-02-04T07:52:22;100722.84;;;10.32;80.79
77227;BME280;66234;47.642;19.144;2024-02-04T07:55:24;100722.38;;;10.50;79.84
77227;BME280;66234;47.642;19.144;2024-02-04T07:58:27;100723.25;;;10.57;78.70
77227;BME280;66234;47.642;19.144;2024-02-04T08:01:30;100703.81;;;10.42;79.19
77227;BME280;66234;47.642;19.144;2024-02-04T08:04:33;100711.44;;;10.45;79.03
77227;BME280;66234;47.642;19.144;2024-02-04T08:07:35;100717.09;;;10.56;78.95
77227;BME280;66234;47.642;19.144;2024-02-04T08:10:38;100733.66;;;10.73;78.53
77227;BME280;66234;47.642;19.144;2024-02-04T08:13:41;100709.66;;;10.86;77.35
77227;BME280;66234;47.642;19.144;2024-02-04T08:16:43;100696.69;;;10.83;76.66
77227;BME280;66234;47.642;19.144;2024-02-04T08:19:48;100733.75;;;10.92;75.73
77227;BME280;66234;47.642;19.144;2024-02-04T08:22:51;100694.22;;;10.88;75.69
77227;BME280;66234;47.642;19.144;2024-02-04T08:25:54;100721.59;;;10.90;75.86
77227;BME280;66234;47.642;19.144;2024-02-04T08:28:59;100747.31;;;10.84;75.53
77227;BME280;66234;47.642;19.144;2024-02-04T08:32:02;100713.44;;;10.64;76.72
77227;BME280;66234;47.642;19.144;2024-02-04T08:35:05;100721.16;;;10.86;75.77
77227;BME280;66234;47.642;19.144;2024-02-04T08:38:08;100718.66;;;10.78;76.14
77227;BME280;66234;47.642;19.144;2024-02-04T08:41:11;100721.38;;;10.85;75.70
77227;BME280;66234;47.642;19.144;2024-02-04T08:44:13;100723.28;;;10.97;75.86
77227;BME280;66234;47.642;19.144;2024-02-04T08:47:33;100713.88;;;11.01;75.26
77227;BME280;66234;47.642;19.144;2024-02-04T08:50:36;100711.91;;;11.23;73.96
77227;BME280;66234;47.642;19.144;2024-02-04T08:53:39;100716.78;;;11.13;73.83
77227;BME280;66234;47.642;19.144;2024-02-04T08:56:41;100704.94;;;11.35;73.86
77227;BME280;66234;47.642;19.144;2024-02-04T08:59:44;100710.13;;;11.43;72.82
77227;BME280;66234;47.642;19.144;2024-02-04T09:02:46;100698.31;;;11.31;73.15
77227;BME280;66234;47.642;19.144;2024-02-04T09:05:49;100679.56;;;11.31;73.32
77227;BME280;66234;47.642;19.144;2024-02-04T09:08:52;100683.94;;;11.45;72.53
77227;BME280;66234;47.642;19.144;2024-02-04T09:11:54;100676.25;;;11.22;73.44
77227;BME280;66234;47.642;19.144;2024-02-04T09:14:57;100676.63;;;11.13;73.29
77227;BME280;66234;47.642;19.144;2024-02-04T09:17:59;100678.53;;;11.25;72.69
77227;BME280;66234;47.642;19.144;2024-02-04T09:21:02;100669.91;;;11.30;72.19
77227;BME280;66234;47.642;19.144;2024-02-04T09:24:06;100648.69;;;11.28;72.35
77227;BME280;66234;47.642;19.144;2024-02-04T09:27:08;100664.16;;;11.33;72.09
77227;BME280;66234;47.642;19.144;2024-02-04T09:30:11;100679.19;;;11.40;71.26
77227;BME280;66234;47.642;19.144;2024-02-04T09:33:16;100698.63;;;11.55;70.61
77227;BME280;66234;47.642;19.144;2024-02-04T09:36:19;100679.94;;;11.95;69.11
77227;BME280;66234;47.642;19.144;2024-02-04T09:39:23;100675.59;;;11.81;68.81
77227;BME280;66234;47.642;19.144;2024-02-04T09:42:26;100660.16;;;11.96;68.46
77227;BME280;66234;47.642;19.144;2024-02-04T09:45:31;100666.13;;;11.98;68.09
77227;BME280;66234;47.642;19.144;2024-02-04T09:48:36;100696.19;;;11.67;69.12
77227;BME280;66234;47.642;19.144;2024-02-04T09:51:40;100682.81;;;11.87;69.03
77227;BME280;66234;47.642;19.144;2024-02-04T09:54:52;100683.03;;;11.92;69.08
77227;BME280;66234;47.642;19.144;2024-02-04T09:57:57;100676.03;;;11.84;69.54
77227;BME280;66234;47.642;19.144;2024-02-04T10:01:00;100683.88;;;11.92;69.33
77227;BME280;66234;47.642;19.144;2024-02-04T10:04:03;100675.22;;;12.03;69.20
77227;BME280;66234;47.642;19.144;2024-02-04T10:07:07;100669.44;;;11.80;69.19
77227;BME280;66234;47.642;19.144;2024-02-04T10:10:11;100649.22;;;11.78;69.80
77227;BME280;66234;47.642;19.144;2024-02-04T10:13:15;100647.56;;;11.77;69.57
77227;BME280;66234;47.642;19.144;2024-02-04T10:16:17;100664.88;;;11.68;69.84
77227;BME280;66234;47.642;19.144;2024-02-04T10:19:24;100670.03;;;11.82;69.23
77227;BME280;66234;47.642;19.144;2024-02-04T10:22:28;100642.03;;;11.85;69.02
77227;BME280;66234;47.642;19.144;2024-02-04T10:25:31;100657.25;;;11.71;69.32
77227;BME280;66234;47.642;19.144;2024-02-04T10:28:37;100649.44;;;11.83;69.12
77227;BME280;66234;47.642;19.144;2024-02-04T10:31:40;100646.78;;;11.96;68.80
77227;BME280;66234;47.642;19.144;2024-02-04T10:34:43;100622.44;;;11.84;68.68
77227;BME280;66234;47.642;19.144;2024-02-04T10:37:50;100606.97;;;11.99;68.29
77227;BME280;66234;47.642;19.144;2024-02-04T10:40:54;100623.47;;;12.09;67.93
77227;BME280;66234;47.642;19.144;2024-02-04T10:43:58;100610.25;;;12.14;67.29
77227;BME280;66234;47.642;19.144;2024-02-04T10:47:05;100616.44;;;12.08;67.78
77227;BME280;66234;47.642;19.144;2024-02-04T10:50:12;100613.38;;;12.11;67.80
77227;BME280;66234;47.642;19.144;2024-02-04T10:53:20;100619.94;;;12.09;66.96
77227;BME280;66234;47.642;19.144;2024-02-04T10:56:33;100625.09;;;12.10;66.26
77227;BME280;66234;47.642;19.144;2024-02-04T10:59:39;100614.16;;;12.18;65.95
77227;BME280;66234;47.642;19.144;2024-02-04T11:02:42;100609.22;;;12.15;65.45
77227;BME280;66234;47.642;19.144;2024-02-04T11:05:49;100596.00;;;12.27;65.39
77227;BME280;66234;47.642;19.144;2024-02-04T11:08:53;100596.81;;;12.21;65.30
77227;BME280;66234;47.642;19.144;2024-02-04T11:11:58;100607.59;;;12.08;65.94
77227;BME280;66234;47.642;19.144;2024-02-04T11:15:07;100590.84;;;12.32;65.56
77227;BME280;66234;47.642;19.144;2024-02-04T11:21:36;100597.19;;;12.44;64.54
77227;BME280;66234;47.642;19.144;2024-02-04T11:25:08;100589.09;;;12.63;63.78
77227;BME280;66234;47.642;19.144;2024-02-04T11:28:16;100598.88;;;12.38;64.09
77227;BME280;66234;47.642;19.144;2024-02-04T11:31:21;100597.81;;;12.46;63.21
77227;BME280;66234;47.642;19.144;2024-02-04T11:34:24;100592.78;;;12.62;63.10
77227;BME280;66234;47.642;19.144;2024-02-04T11:37:27;100587.50;;;13.00;62.53
77227;BME280;66234;47.642;19.144;2024-02-04T11:40:37;100588.00;;;13.21;61.61
77227;BME280;66234;47.642;19.144;2024-02-04T11:43:40;100581.25;;;13.12;61.35
77227;BME280;66234;47.642;19.144;2024-02-04T11:46:46;100572.03;;;13.33;60.97
77227;BME280;66234;47.642;19.144;2024-02-04T11:49:58;100577.19;;;13.35;60.93
77227;BME280;66234;47.642;19.144;2024-02-04T11:53:12;100569.44;;;13.20;60.53
77227;BME280;66234;47.642;19.144;2024-02-04T11:56:15;100554.03;;;13.34;60.58
77227;BME280;66234;47.642;19.144;2024-02-04T11:59:19;100554.25;;;13.32;60.70
77227;BME280;66234;47.642;19.144;2024-02-04T12:02:22;100528.59;;;13.11;60.82
77227;BME280;66234;47.642;19.144;2024-02-04T12:05:25;100520.41;;;13.31;60.29
77227;BME280;66234;47.642;19.144;2024-02-04T12:08:31;100543.19;;;13.22;60.43
77227;BME280;66234;47.642;19.144;2024-02-04T12:11:35;100532.16;;;12.99;61.83
77227;BME280;66234;47.642;19.144;2024-02-04T12:14:39;100540.16;;;12.68;62.76
77227;BME280;66234;47.642;19.144;2024-02-04T12:17:42;100528.16;;;12.70;62.97
77227;BME280;66234;47.642;19.144;2024-02-04T12:20:46;100544.38;;;12.51;63.07
77227;BME280;66234;47.642;19.144;2024-02-04T12:23:49;100543.28;;;12.58;63.40
77227;BME280;66234;47.642;19.144;2024-02-04T12:26:52;100543.28;;;12.65;63.39
77227;BME280;66234;47.642;19.144;2024-02-04T12:29:55;100557.34;;;12.60;63.05
77227;BME280;66234;47.642;19.144;2024-02-04T12:32:59;100555.50;;;12.54;63.73
77227;BME280;66234;47.642;19.144;2024-02-04T12:36:02;100556.28;;;12.61;63.62
77227;BME280;66234;47.642;19.144;2024-02-04T12:39:05;100547.25;;;12.56;63.38
77227;BME280;66234;47.642;19.144;2024-02-04T12:42:15;100552.34;;;12.64;63.38
77227;BME280;66234;47.642;19.144;2024-02-04T12:45:23;100547.97;;;12.76;63.01
77227;BME280;66234;47.642;19.144;2024-02-04T12:48:26;100543.50;;;12.63;63.58
77227;BME280;66234;47.642;19.144;2024-02-04T12:51:31;100555.84;;;12.64;63.46
77227;BME280;66234;47.642;19.144;2024-02-04T12:54:43;100541.88;;;12.56;63.74
77227;BME280;66234;47.642;19.144;2024-02-04T12:57:46;100529.09;;;12.51;63.50
77227;BME280;66234;47.642;19.144;2024-02-04T13:00:48;100535.25;;;12.58;63.00
77227;BME280;66234;47.642;19.144;2024-02-04T13:03:55;100513.38;;;12.61;63.02
77227;BME280;66234;47.642;19.144;2024-02-04T13:06:57;100525.34;;;12.59;63.10
77227;BME280;66234;47.642;19.144;2024-02-04T13:10:00;100533.56;;;12.64;63.05
77227;BME280;66234;47.642;19.144;2024-02-04T13:13:05;100532.13;;;12.68;63.16
77227;BME280;66234;47.642;19.144;2024-02-04T13:16:09;100531.03;;;12.75;63.31
77227;BME280;66234;47.642;19.144;2024-02-04T13:19:11;100510.00;;;12.72;63.12
77227;BME280;66234;47.642;19.144;2024-02-04T13:22:14;100511.69;;;12.67;63.93
77227;BME280;66234;47.642;19.144;2024-02-04T13:25:17;100519.34;;;12.63;64.22
77227;BME280;66234;47.642;19.144;2024-02-04T13:28:20;100497.84;;;12.70;64.37
77227;BME280;66234;47.642;19.144;2024-02-04T13:31:25;100496.25;;;12.93;63.89
77227;BME280;66234;47.642;19.144;2024-02-04T13:34:29;100490.94;;;12.87;64.20
77227;BME280;66234;47.642;19.144;2024-02-04T13:37:32;100480.28;;;13.11;63.72
77227;BME280;66234;47.642;19.144;2024-02-04T13:40:35;100483.50;;;13.20;63.60
77227;BME280;66234;47.642;19.144;2024-02-04T13:43:37;100484.38;;;13.14;63.97
77227;BME280;66234;47.642;19.144;2024-02-04T13:46:40;100482.25;;;13.23;63.41
77227;BME280;66234;47.642;19.144;2024-02-04T13:49:45;100464.66;;;13.51;62.37
77227;BME280;66234;47.642;19.144;2024-02-04T13:52:47;100477.44;;;13.31;62.61
77227;BME280;66234;47.642;19.144;2024-02-04T13:55:50;100482.31;;;13.16;63.66
77227;BME280;66234;47.642;19.144;2024-02-04T13:58:53;100482.91;;;13.18;62.83
77227;BME280;66234;47.642;19.144;2024-02-04T14:01:55;100459.13;;;13.21;63.08
77227;BME280;66234;47.642;19.144;2024-02-04T14:05:03;100465.19;;;13.35;62.71
77227;BME280;66234;47.642;19.144;2024-02-04T14:08:07;100475.00;;;13.23;63.11
77227;BME280;66234;47.642;19.144;2024-02-04T14:11:10;100464.06;;;13.24;63.73
77227;BME280;66234;47.642;19.144;2024-02-04T14:14:12;100470.69;;;13.47;62.95
77227;BME280;66234;47.642;19.144;2024-02-04T14:17:15;100480.16;;;13.24;63.10
77227;BME280;66234;47.642;19.144;2024-02-04T14:20:17;100464.66;;;13.27;62.94
77227;BME280;66234;47.642;19.144;2024-02-04T14:23:20;100457.75;;;13.12;63.89
77227;BME280;66234;47.642;19.144;2024-02-04T14:26:23;100461.13;;;13.01;64.67
77227;BME280;66234;47.642;19.144;2024-02-04T14:29:25;100440.38;;;13.15;64.43
77227;BME280;66234;47.642;19.144;2024-02-04T14:32:31;100448.81;;;12.87;65.42
77227;BME280;66234;47.642;19.144;2024-02-04T14:35:34;100441.41;;;12.83;65.59
77227;BME280;66234;47.642;19.144;2024-02-04T14:38:37;100436.44;;;12.86;65.84
77227;BME280;66234;47.642;19.144;2024-02-04T14:41:41;100425.72;;;12.55;66.74
77227;BME280;66234;47.642;19.144;2024-02-04T14:44:44;100432.59;;;12.45;67.27
77227;BME280;66234;47.642;19.144;2024-02-04T14:47:47;100428.44;;;12.42;67.35
77227;BME280;66234;47.642;19.144;2024-02-04T14:50:50;100423.50;;;12.39;67.93
77227;BME280;66234;47.642;19.144;2024-02-04T14:53:53;100439.25;;;12.29;68.61
77227;BME280;66234;47.642;19.144;2024-02-04T14:56:56;100448.59;;;12.14;69.11
77227;BME280;66234;47.642;19.144;2024-02-04T14:59:58;100432.53;;;12.07;69.05
77227;BME280;66234;47.642;19.144;2024-02-04T15:03:01;100418.16;;;11.95;69.57
77227;BME280;66234;47.642;19.144;2024-02-04T15:06:04;100427.69;;;11.85;69.66
77227;BME280;66234;47.642;19.144;2024-02-04T15:09:07;100418.81;;;11.78;70.20
77227;BME280;66234;47.642;19.144;2024-02-04T15:12:12;100419.47;;;11.67;70.54
77227;BME280;66234;47.642;19.144;2024-02-04T15:15:17;100422.16;;;11.60;70.61
77227;BME280;66234;47.642;19.144;2024-02-04T15:18:20;100418.66;;;11.59;70.41
77227;BME280;66234;47.642;19.144;2024-02-04T15:21:23;100404.25;;;11.41;70.79
77227;BME280;66234;47.642;19.144;2024-02-04T15:24:27;100415.19;;;11.39;70.88
77227;BME280;66234;47.642;19.144;2024-02-04T15:27:31;100405.47;;;11.51;70.39
77227;BME280;66234;47.642;19.144;2024-02-04T15:30:34;100399.06;;;11.52;70.44
77227;BME280;66234;47.642;19.144;2024-02-04T15:33:37;100409.63;;;11.34;70.94
77227;BME280;66234;47.642;19.144;2024-02-04T15:36:40;100404.31;;;11.21;71.54
77227;BME280;66234;47.642;19.144;2024-02-04T15:39:43;100407.78;;;11.15;71.65
77227;BME280;66234;47.642;19.144;2024-02-04T15:42:46;100396.88;;;11.10;71.76
77227;BME280;66234;47.642;19.144;2024-02-04T15:45:49;100387.22;;;11.03;71.67
77227;BME280;66234;47.642;19.144;2024-02-04T15:48:52;100419.50;;;11.08;71.46
77227;BME280;66234;47.642;19.144;2024-02-04T15:51:58;100406.97;;;11.02;71.45
77227;BME280;66234;47.642;19.144;2024-02-04T15:55:01;100397.91;;;10.96;71.71
77227;BME280;66234;47.642;19.144;2024-02-04T15:58:05;100416.84;;;10.95;71.82
77227;BME280;66234;47.642;19.144;2024-02-04T16:01:14;100400.59;;;10.96;71.99